Hauptseite
METAR-TAF:

METAR-TAF

Flughäfen :

Flughafen Epinal-Mirecourt

Épinal, Frankreich

Breite: 48-19-31N, Länge: 6-04-00E, Höhe: 330 m

Beobachtung

Neuester Wetterbericht von vor 10 Minuten, um 14:00 UTC
Wind 6 kt aus West/Südwest, variierte zwischen Süd/Südwest und Nord/Nordwest
Temperatur 19°C
Luftfeuchtigkeit 60%
Luftdruck 1008 hPa
Sichtweite 10 km oder mehr
Aufgelockert bewölkt in der Höhe von 4100 ft
Aufgelockert bewölkt in der Höhe von 4800 ft
Durchbrochene Bewölkung in der Höhe von 21000 ft

METAR: LFSG 211400Z AUTO 24006KT 200V330 9999 SCT041 SCT048 BKN210 19/11 Q1008

Zeit: 16:10 (14:10 UTC)


TAF: fehlend

Wetterbeobachtungen und Prognosen von mehr als 4000 Flughäfen (METAR und TAF Bericht).

Die verfügbaren Stationen werden durch gelbe und rote Markierungen auf der Karte dargestellt.

Führen Sie die Maus auf sie, um den Namen der Station zu sehen.

Darauf klicken, um die Beobachtung von Wetterbeobachtungen und Prognosen zu sehen.

Um die Karte zu ändern : klicken Sie auf den grünen Tasten mit einem schwarzen Kreuz Zum Vergrößern, auf den grünen Button mit einem Gedankenstrich zu verkleinern, oder auf die grünen Pfeile für benachbarte Karten.


METAR-TAF: